createdAt,value
2022-09-20T00:01:13.207Z,15.79
2022-09-20T00:03:42.874Z,15.68
2022-09-20T00:06:14.651Z,15.69
2022-09-20T00:08:41.818Z,15.74
2022-09-20T00:11:11.391Z,15.85
2022-09-20T00:13:39.601Z,15.97
2022-09-20T00:16:08.928Z,16.09
2022-09-20T00:18:36.154Z,16.12
2022-09-20T00:21:05.172Z,16.08
2022-09-20T00:23:32.149Z,16.14
2022-09-20T00:26:01.255Z,16.20
2022-09-20T00:28:29.096Z,16.36
2022-09-20T00:30:56.505Z,16.31
2022-09-20T00:33:25.085Z,16.36
2022-09-20T00:35:51.704Z,16.46
2022-09-20T00:38:18.309Z,16.47
2022-09-20T00:40:45.337Z,16.55
2022-09-20T00:43:18.735Z,16.57
2022-09-20T00:45:49.449Z,16.71
2022-09-20T00:48:27.693Z,16.81
2022-09-20T00:51:08.965Z,16.87
2022-09-20T00:53:43.769Z,16.81
2022-09-20T00:56:19.645Z,16.91
2022-09-20T00:59:04.628Z,16.87
2022-09-20T01:01:32.145Z,16.80
2022-09-20T01:03:59.881Z,16.78
2022-09-20T01:06:26.778Z,16.68
2022-09-20T01:08:56.387Z,16.71
2022-09-20T01:11:23.034Z,16.66
2022-09-20T01:13:49.674Z,16.60
2022-09-20T01:16:18.029Z,16.56
2022-09-20T01:18:45.795Z,16.50
2022-09-20T01:21:13.501Z,16.50
2022-09-20T01:24:18.490Z,16.55
2022-09-20T01:27:10.832Z,16.46
2022-09-20T01:29:53.011Z,16.44
2022-09-20T01:32:23.924Z,16.46
2022-09-20T01:34:58.186Z,16.45
2022-09-20T01:37:28.041Z,16.51
2022-09-20T01:40:23.960Z,16.55
2022-09-20T01:43:13.889Z,16.54
2022-09-20T01:45:46.784Z,16.48
2022-09-20T01:48:37.723Z,16.60
2022-09-20T01:51:20.996Z,16.73
2022-09-20T01:53:50.493Z,16.87
2022-09-20T01:56:22.806Z,16.95
2022-09-20T01:59:22.767Z,16.98
2022-09-20T02:02:01.401Z,16.98
2022-09-20T02:04:49.669Z,16.96
2022-09-20T02:07:47.792Z,16.92
2022-09-20T02:10:35.887Z,17.03
2022-09-20T02:13:29.279Z,16.97
2022-09-20T02:16:17.084Z,16.91
2022-09-20T02:18:56.660Z,16.85
2022-09-20T02:21:42.314Z,16.80
2022-09-20T02:24:11.460Z,16.73
2022-09-20T02:27:02.745Z,16.66
2022-09-20T02:29:53.950Z,16.60
2022-09-20T02:32:45.297Z,16.51
2022-09-20T02:35:42.806Z,16.46
2022-09-20T02:38:18.329Z,16.38
2022-09-20T02:41:05.597Z,16.31
2022-09-20T02:43:51.758Z,16.21
2022-09-20T02:46:28.629Z,16.14
2022-09-20T02:49:44.906Z,16.11
2022-09-20T02:52:23.322Z,16.03
2022-09-20T02:55:16.871Z,15.99
2022-09-20T02:58:07.620Z,15.97
2022-09-20T03:00:48.450Z,15.95
2022-09-20T03:03:32.920Z,15.90
2022-09-20T03:06:38.732Z,15.92
2022-09-20T03:09:17.247Z,15.91
2022-09-20T03:11:57.083Z,15.87
2022-09-20T03:14:51.310Z,15.80
2022-09-20T03:17:27.497Z,15.77
2022-09-20T03:20:08.706Z,15.72
2022-09-20T03:22:58.281Z,15.71
2022-09-20T03:25:48.129Z,15.67
2022-09-20T03:28:28.245Z,15.67
2022-09-20T03:31:00.992Z,15.72
2022-09-20T03:33:39.487Z,15.70
2022-09-20T03:36:36.905Z,15.68
2022-09-20T03:39:31.271Z,15.77
2022-09-20T03:42:20.156Z,15.90
2022-09-20T03:45:00.967Z,15.95
2022-09-20T03:47:33.469Z,16.31
2022-09-20T03:50:28.887Z,16.34
2022-09-20T03:53:12.688Z,16.45
2022-09-20T03:55:59.706Z,16.54
2022-09-20T03:58:49.390Z,16.57
2022-09-20T04:01:18.821Z,16.52
2022-09-20T04:04:23.727Z,16.38
2022-09-20T04:07:02.345Z,16.48
2022-09-20T04:09:43.831Z,16.34
2022-09-20T04:12:28.394Z,16.12
2022-09-20T04:15:07.485Z,16.04
2022-09-20T04:17:57.213Z,15.83
2022-09-20T04:20:38.885Z,15.73
2022-09-20T04:23:36.092Z,15.66
2022-09-20T04:26:03.565Z,15.52
2022-09-20T04:28:32.977Z,15.47
2022-09-20T04:31:35.002Z,15.50
2022-09-20T04:34:04.920Z,15.44
2022-09-20T04:36:34.361Z,15.46
2022-09-20T04:39:22.613Z,15.46
2022-09-20T04:42:18.086Z,15.47
2022-09-20T04:45:09.382Z,15.63
2022-09-20T04:47:35.899Z,15.77
2022-09-20T04:50:20.798Z,15.85
2022-09-20T04:53:15.634Z,15.83
2022-09-20T04:55:56.135Z,15.82
2022-09-20T04:58:57.195Z,15.75
2022-09-20T05:01:35.998Z,15.78
2022-09-20T05:04:33.286Z,15.76
2022-09-20T05:07:30.427Z,15.67
2022-09-20T05:10:43.877Z,15.60
2022-09-20T05:13:35.221Z,15.54
2022-09-20T05:16:09.355Z,15.51
2022-09-20T05:18:54.508Z,15.54
2022-09-20T05:21:55.049Z,15.60
2022-09-20T05:24:56.535Z,15.53
2022-09-20T05:28:02.897Z,15.34
2022-09-20T05:30:45.642Z,15.10
2022-09-20T05:33:40.076Z,15.02
2022-09-20T05:36:13.818Z,14.82
2022-09-20T05:38:49.092Z,14.82
2022-09-20T05:41:18.995Z,14.82
2022-09-20T05:44:37.015Z,14.86
2022-09-20T05:47:34.849Z,14.92
2022-09-20T05:50:16.064Z,15.18
2022-09-20T05:52:54.509Z,15.50
2022-09-20T05:55:42.632Z,16.13
2022-09-20T05:58:46.996Z,16.97
2022-09-20T06:01:25.582Z,17.66
2022-09-20T06:04:08.872Z,18.27
2022-09-20T06:06:47.638Z,18.87
2022-09-20T06:09:20.240Z,19.24
2022-09-20T06:12:05.059Z,18.83
2022-09-20T06:14:31.608Z,19.05
2022-09-20T06:17:11.893Z,19.43
2022-09-20T06:19:49.477Z,19.32
2022-09-20T06:22:40.420Z,18.83
2022-09-20T06:25:10.047Z,18.82
2022-09-20T06:27:54.623Z,18.95
2022-09-20T06:30:26.510Z,19.49
2022-09-20T11:28:23.091Z,24.16
2022-09-20T11:31:04.344Z,23.27
2022-09-20T11:33:52.830Z,23.29
2022-09-20T11:36:39.379Z,23.54
2022-09-20T11:39:13.381Z,23.78
2022-09-20T11:41:40.920Z,24.00
2022-09-20T11:44:12.693Z,24.30
2022-09-20T11:46:52.344Z,24.27
2022-09-20T11:49:27.001Z,23.59
2022-09-20T11:52:13.680Z,23.05
2022-09-20T11:55:18.893Z,23.27
2022-09-20T11:57:46.754Z,23.67
2022-09-20T12:00:13.426Z,23.70
2022-09-20T12:02:54.010Z,23.50
2022-09-20T12:05:41.588Z,23.43
2022-09-20T12:08:21.989Z,23.07
2022-09-20T12:10:59.112Z,23.65
2022-09-20T12:13:27.785Z,23.36
2022-09-20T12:16:12.882Z,23.33
2022-09-20T12:18:48.280Z,23.50
2022-09-20T12:21:17.647Z,23.50
2022-09-20T12:23:53.627Z,23.85
2022-09-20T12:26:23.243Z,24.63
2022-09-20T12:29:01.271Z,25.02
2022-09-20T12:31:33.789Z,24.79
2022-09-20T12:34:09.995Z,25.07
2022-09-20T12:36:44.848Z,25.28
2022-09-20T12:39:11.249Z,25.79
2022-09-20T12:42:03.059Z,24.57
2022-09-20T12:44:37.748Z,24.12
2022-09-20T12:47:15.864Z,24.57
2022-09-20T12:50:04.112Z,24.50
2022-09-20T12:52:58.010Z,24.77
2022-09-20T12:55:30.312Z,23.78
2022-09-20T12:58:01.977Z,24.12
2022-09-20T13:00:34.484Z,24.38
2022-09-20T13:03:01.884Z,24.42
2022-09-20T13:05:38.194Z,24.62
2022-09-20T13:08:10.465Z,25.26
2022-09-20T13:10:45.044Z,24.72
2022-09-20T13:13:19.440Z,24.98
2022-09-20T13:15:52.394Z,25.52
2022-09-20T13:18:20.136Z,25.44
2022-09-20T13:20:47.048Z,25.46
2022-09-20T13:23:21.705Z,25.51
2022-09-20T13:25:49.717Z,25.18
2022-09-20T13:28:28.830Z,25.10
2022-09-20T13:31:20.356Z,25.34
2022-09-20T13:33:47.688Z,24.34
2022-09-20T13:36:14.680Z,24.22
2022-09-20T13:38:41.597Z,24.33
2022-09-20T13:41:12.949Z,24.38
2022-09-20T13:43:50.696Z,23.86
2022-09-20T13:46:29.196Z,24.32
2022-09-20T13:49:11.065Z,24.37
2022-09-20T13:51:37.627Z,24.71
2022-09-20T13:54:30.457Z,24.18
2022-09-20T13:57:01.688Z,24.33
2022-09-20T13:59:42.204Z,24.84
2022-09-20T14:02:24.014Z,24.64
2022-09-20T14:04:54.550Z,24.72
2022-09-20T14:07:25.748Z,25.12
2022-09-20T14:09:54.077Z,25.18
2022-09-20T14:12:21.769Z,24.76
2022-09-20T14:14:49.807Z,24.96
2022-09-20T14:17:21.860Z,24.72
2022-09-20T14:19:51.791Z,24.56
2022-09-20T14:22:27.106Z,24.82
2022-09-20T14:25:13.859Z,25.11
2022-09-20T14:27:40.787Z,24.87
2022-09-20T14:30:27.600Z,24.34
2022-09-20T14:32:55.996Z,24.35
2022-09-20T14:35:23.169Z,24.25
2022-09-20T14:37:57.254Z,24.34
2022-09-20T14:40:23.897Z,24.41
2022-09-20T14:42:54.651Z,24.46
2022-09-20T14:45:24.560Z,24.61
2022-09-20T14:48:10.669Z,24.52
2022-09-20T14:50:39.425Z,24.55
2022-09-20T14:53:21.929Z,24.14
2022-09-20T14:55:59.927Z,24.10
2022-09-20T14:58:27.209Z,23.70
2022-09-20T15:01:13.525Z,23.16
2022-09-20T15:03:41.870Z,23.53
2022-09-20T15:06:13.402Z,23.55
2022-09-20T15:08:45.479Z,23.48
2022-09-20T15:11:18.422Z,23.57
2022-09-20T15:13:45.504Z,23.52
2022-09-20T15:16:14.510Z,23.57
2022-09-20T15:18:43.158Z,23.57
2022-09-20T15:21:12.412Z,23.58
2022-09-20T15:23:39.951Z,23.57
2022-09-20T15:26:08.826Z,23.45
2022-09-20T15:28:35.486Z,23.49
2022-09-20T15:31:02.398Z,23.51
2022-09-20T15:33:30.884Z,23.49
2022-09-20T15:35:57.362Z,23.52
2022-09-20T15:38:26.747Z,23.34
2022-09-20T15:40:53.718Z,23.37
2022-09-20T15:43:24.153Z,23.30
2022-09-20T15:45:56.210Z,23.22
2022-09-20T15:48:25.658Z,23.16
2022-09-20T15:51:04.221Z,23.26
2022-09-20T15:53:34.145Z,23.09
2022-09-20T15:56:02.604Z,23.09
2022-09-20T15:58:36.658Z,22.96
2022-09-20T16:01:08.292Z,22.90
2022-09-20T16:03:36.487Z,22.83
2022-09-20T16:06:08.233Z,22.93
2022-09-20T16:08:43.817Z,22.93
2022-09-20T16:11:13.675Z,22.91
2022-09-20T16:13:40.696Z,22.80
2022-09-20T16:16:10.005Z,22.86
2022-09-20T16:18:55.551Z,22.92
2022-09-20T16:21:22.255Z,22.80
2022-09-20T16:23:51.570Z,22.72
2022-09-20T16:26:19.669Z,22.69
2022-09-20T16:28:47.643Z,22.57
2022-09-20T16:31:43.665Z,22.51
2022-09-20T16:34:13.250Z,22.42
2022-09-20T16:36:43.349Z,22.28
2022-09-20T16:39:10.591Z,22.33
2022-09-20T16:41:39.081Z,22.29
2022-09-20T16:44:05.454Z,22.25
2022-09-20T16:46:33.409Z,22.20
2022-09-20T16:49:00.825Z,22.11
2022-09-20T16:51:33.281Z,22.17
2022-09-20T16:54:09.555Z,21.80
2022-09-20T16:56:36.131Z,21.50
2022-09-20T16:59:04.816Z,21.37
2022-09-20T17:01:32.031Z,21.31
2022-09-20T17:03:59.272Z,21.16
2022-09-20T17:06:27.279Z,21.11
2022-09-20T17:08:58.861Z,21.01
2022-09-20T17:11:28.534Z,21.00
2022-09-20T17:13:56.008Z,20.96
2022-09-20T17:16:34.201Z,20.86
2022-09-20T17:19:03.019Z,20.78
2022-09-20T17:21:30.241Z,20.68
2022-09-20T17:23:59.567Z,20.64
2022-09-20T17:26:40.408Z,20.61
2022-09-20T17:29:09.863Z,20.54
2022-09-20T17:31:39.108Z,20.55
2022-09-20T17:34:09.516Z,20.54
2022-09-20T17:36:46.433Z,20.49
2022-09-20T17:39:14.535Z,20.47
2022-09-20T17:41:45.980Z,20.44
2022-09-20T17:44:13.451Z,20.36
2022-09-20T17:46:42.452Z,20.23
2022-09-20T17:49:16.903Z,20.07
2022-09-20T17:51:45.841Z,19.98
2022-09-20T17:54:14.007Z,19.86
2022-09-20T17:56:43.658Z,19.80
2022-09-20T17:59:11.790Z,19.76
2022-09-20T18:01:38.845Z,19.70
2022-09-20T18:04:06.788Z,19.68
2022-09-20T18:06:44.928Z,19.70
2022-09-20T18:09:16.527Z,19.61
2022-09-20T18:11:46.372Z,19.54
2022-09-20T18:14:13.460Z,19.47
2022-09-20T18:16:40.711Z,19.38
2022-09-20T18:19:08.354Z,19.27
2022-09-20T18:21:36.617Z,19.24
2022-09-20T18:24:06.302Z,19.15
2022-09-20T18:26:33.091Z,19.00
2022-09-20T18:29:09.491Z,18.90
2022-09-20T18:31:43.045Z,18.83
2022-09-20T18:34:12.167Z,18.75
2022-09-20T18:36:39.886Z,18.72
2022-09-20T18:39:06.702Z,18.68
2022-09-20T18:41:38.115Z,18.62
2022-09-20T18:44:07.549Z,18.55
2022-09-20T18:46:37.766Z,18.48
2022-09-20T18:49:07.899Z,18.31
2022-09-20T18:51:39.196Z,18.21
2022-09-20T18:54:06.592Z,18.13
2022-09-20T18:56:56.540Z,18.11
2022-09-20T18:59:25.197Z,18.07
2022-09-20T19:01:55.028Z,18.03
2022-09-20T19:04:46.160Z,18.01
2022-09-20T19:07:27.979Z,17.90
2022-09-20T19:10:17.112Z,17.89
2022-09-20T19:13:08.951Z,17.89
2022-09-20T19:15:53.885Z,17.80
2022-09-20T19:18:58.669Z,17.87
2022-09-20T19:21:40.423Z,17.81
2022-09-20T19:24:31.615Z,17.80
2022-09-20T19:26:58.452Z,17.70
2022-09-20T19:29:27.207Z,17.65
2022-09-20T19:31:55.548Z,17.65
2022-09-20T19:34:25.360Z,17.62
2022-09-20T19:37:22.801Z,17.47
2022-09-20T19:40:14.644Z,17.40
2022-09-20T19:43:07.459Z,17.39
2022-09-20T19:46:13.353Z,17.37
2022-09-20T19:49:02.422Z,17.30
2022-09-20T19:51:34.977Z,17.23
2022-09-20T19:54:01.694Z,17.16
2022-09-20T19:56:34.531Z,17.09
2022-09-20T19:59:01.269Z,16.99
2022-09-20T20:01:28.106Z,16.97
2022-09-20T20:03:55.844Z,16.97
2022-09-20T20:06:36.720Z,16.98
2022-09-20T20:09:29.558Z,17.05
2022-09-20T20:12:35.595Z,17.12
2022-09-20T20:15:28.517Z,17.17
2022-09-20T20:18:01.699Z,17.16
2022-09-20T20:20:49.285Z,17.11
2022-09-20T20:23:27.926Z,17.08
2022-09-20T20:26:02.825Z,17.03
2022-09-20T20:28:30.137Z,16.96
2022-09-20T20:31:00.124Z,16.95
2022-09-20T20:33:27.043Z,16.84
2022-09-20T20:35:58.398Z,16.75
2022-09-20T20:38:26.455Z,16.61
2022-09-20T20:41:05.675Z,16.64
2022-09-20T20:43:37.358Z,16.57
2022-09-20T20:46:05.561Z,16.58
2022-09-20T20:48:32.700Z,16.59
2022-09-20T20:51:04.115Z,16.48
2022-09-20T20:53:35.967Z,16.33
2022-09-20T20:56:05.659Z,16.32
2022-09-20T20:58:33.087Z,16.29
2022-09-20T21:01:30.264Z,16.42
2022-09-20T21:03:57.705Z,16.52
2022-09-20T21:06:28.767Z,16.59
2022-09-20T21:08:55.353Z,16.53
2022-09-20T21:11:30.065Z,16.59
2022-09-20T21:14:00.237Z,16.67
2022-09-20T21:16:29.706Z,16.80
2022-09-20T21:18:57.279Z,16.83
2022-09-20T21:21:27.985Z,16.86
2022-09-20T21:24:00.779Z,16.79
2022-09-20T21:26:32.001Z,16.82
2022-09-20T21:29:00.644Z,16.80
2022-09-20T21:31:32.759Z,16.86
2022-09-20T21:33:59.998Z,16.82
2022-09-20T21:36:28.643Z,16.86
2022-09-20T21:38:55.877Z,16.83
2022-09-20T21:41:24.881Z,16.79
2022-09-20T21:43:53.841Z,16.77
2022-09-20T21:46:29.118Z,16.71
2022-09-20T21:49:00.718Z,16.73
2022-09-20T21:51:31.147Z,16.80
2022-09-20T21:53:59.547Z,16.85
2022-09-20T21:56:27.681Z,16.88
2022-09-20T21:58:55.016Z,16.88
2022-09-20T22:01:24.023Z,16.92
2022-09-20T22:03:53.909Z,16.95
2022-09-20T22:06:22.388Z,16.99
2022-09-20T22:09:02.945Z,17.01
2022-09-20T22:11:31.900Z,16.95
2022-09-20T22:13:59.147Z,17.10
2022-09-20T22:16:28.913Z,17.11
2022-09-20T22:18:56.253Z,17.12
2022-09-20T22:21:35.299Z,17.10
2022-09-20T22:24:05.705Z,17.08
2022-09-20T22:27:03.296Z,17.05
2022-09-20T22:29:29.809Z,17.07
2022-09-20T22:31:56.343Z,17.08
2022-09-20T22:34:24.238Z,17.02
2022-09-20T22:36:52.044Z,17.02
2022-09-20T22:39:18.614Z,16.99
2022-09-20T22:41:47.739Z,16.96
2022-09-20T22:44:14.272Z,17.06
2022-09-20T22:46:40.807Z,17.10
2022-09-20T22:49:09.030Z,17.15
2022-09-20T22:51:36.585Z,17.19
2022-09-20T22:54:11.502Z,17.17
2022-09-20T22:56:39.596Z,17.20
2022-09-20T22:59:08.718Z,17.20
2022-09-20T23:01:37.859Z,17.17
2022-09-20T23:04:08.099Z,17.09
2022-09-20T23:06:38.387Z,17.03
2022-09-20T23:09:07.905Z,16.90
2022-09-20T23:11:35.564Z,16.84
2022-09-20T23:14:05.059Z,16.82
2022-09-20T23:17:27.798Z,16.82
2022-09-20T23:19:54.287Z,16.80
2022-09-20T23:22:20.769Z,16.76
2022-09-20T23:24:47.264Z,16.79
2022-09-20T23:27:15.421Z,16.85
2022-09-20T23:29:41.933Z,16.91
2022-09-20T23:32:08.399Z,16.96
2022-09-20T23:34:34.883Z,16.98
2022-09-20T23:37:01.372Z,17.00
2022-09-20T23:39:28.036Z,17.01
2022-09-20T23:41:54.504Z,17.03
2022-09-20T23:44:21.186Z,17.04
2022-09-20T23:46:47.708Z,17.07
2022-09-20T23:49:14.197Z,17.11
2022-09-20T23:51:40.665Z,17.16
2022-09-20T23:54:07.311Z,17.24
2022-09-20T23:56:33.979Z,17.31
2022-09-20T23:59:00.523Z,17.36
